sensor_id;sensor_type;location;lat;lon;timestamp;P1;durP1;ratioP1;P2;durP2;ratioP2
52858;SDS011;38721;53.098;6.596;2024-01-10T00:01:59;30.25;;;19.65;;
52858;SDS011;38721;53.098;6.596;2024-01-10T00:04:25;28.88;;;19.70;;
52858;SDS011;38721;53.098;6.596;2024-01-10T00:06:51;30.40;;;19.25;;
52858;SDS011;38721;53.098;6.596;2024-01-10T00:09:17;29.88;;;20.40;;
52858;SDS011;38721;53.098;6.596;2024-01-10T00:11:43;31.80;;;19.83;;
52858;SDS011;38721;53.098;6.596;2024-01-10T00:14:08;30.13;;;19.17;;
52858;SDS011;38721;53.098;6.596;2024-01-10T00:16:34;27.08;;;18.85;;
52858;SDS011;38721;53.098;6.596;2024-01-10T00:19:00;29.00;;;20.02;;
52858;SDS011;38721;53.098;6.596;2024-01-10T00:21:26;30.98;;;19.42;;
52858;SDS011;38721;53.098;6.596;2024-01-10T00:23:52;27.75;;;18.92;;
52858;SDS011;38721;53.098;6.596;2024-01-10T00:26:18;30.77;;;18.98;;
52858;SDS011;38721;53.098;6.596;2024-01-10T00:28:43;30.20;;;20.15;;
52858;SDS011;38721;53.098;6.596;2024-01-10T00:31:11;28.55;;;19.98;;
52858;SDS011;38721;53.098;6.596;2024-01-10T00:33:38;31.55;;;20.42;;
52858;SDS011;38721;53.098;6.596;2024-01-10T00:36:04;27.98;;;19.55;;
52858;SDS011;38721;53.098;6.596;2024-01-10T00:38:31;32.72;;;21.15;;
52858;SDS011;38721;53.098;6.596;2024-01-10T00:40:57;31.65;;;20.52;;
52858;SDS011;38721;53.098;6.596;2024-01-10T00:43:23;27.67;;;20.50;;
52858;SDS011;38721;53.098;6.596;2024-01-10T00:45:49;33.05;;;21.77;;
52858;SDS011;38721;53.098;6.596;2024-01-10T00:48:14;29.92;;;20.02;;
52858;SDS011;38721;53.098;6.596;2024-01-10T00:50:42;29.15;;;19.88;;
52858;SDS011;38721;53.098;6.596;2024-01-10T00:53:09;32.17;;;21.20;;
52858;SDS011;38721;53.098;6.596;2024-01-10T00:55:35;30.08;;;20.08;;
52858;SDS011;38721;53.098;6.596;2024-01-10T00:58:01;28.90;;;18.88;;
52858;SDS011;38721;53.098;6.596;2024-01-10T01:00:27;33.20;;;21.10;;
52858;SDS011;38721;53.098;6.596;2024-01-10T01:02:53;34.47;;;20.95;;
52858;SDS011;38721;53.098;6.596;2024-01-10T01:05:18;33.05;;;21.05;;
52858;SDS011;38721;53.098;6.596;2024-01-10T01:07:44;32.20;;;20.92;;
52858;SDS011;38721;53.098;6.596;2024-01-10T01:10:10;32.88;;;20.65;;
52858;SDS011;38721;53.098;6.596;2024-01-10T01:12:36;31.80;;;21.40;;
52858;SDS011;38721;53.098;6.596;2024-01-10T01:15:02;32.35;;;21.50;;
52858;SDS011;38721;53.098;6.596;2024-01-10T01:17:28;32.75;;;22.17;;
52858;SDS011;38721;53.098;6.596;2024-01-10T01:19:53;33.55;;;21.63;;
52858;SDS011;38721;53.098;6.596;2024-01-10T01:22:19;36.15;;;23.48;;
52858;SDS011;38721;53.098;6.596;2024-01-10T01:24:45;34.10;;;21.65;;
52858;SDS011;38721;53.098;6.596;2024-01-10T01:27:11;37.90;;;23.02;;
52858;SDS011;38721;53.098;6.596;2024-01-10T01:29:37;35.92;;;23.27;;
52858;SDS011;38721;53.098;6.596;2024-01-10T01:32:03;37.92;;;23.30;;
52858;SDS011;38721;53.098;6.596;2024-01-10T01:34:29;35.42;;;23.58;;
52858;SDS011;38721;53.098;6.596;2024-01-10T01:36:58;34.58;;;22.98;;
52858;SDS011;38721;53.098;6.596;2024-01-10T01:39:26;38.17;;;24.20;;
52858;SDS011;38721;53.098;6.596;2024-01-10T01:41:51;37.28;;;23.33;;
52858;SDS011;38721;53.098;6.596;2024-01-10T01:44:17;39.97;;;23.65;;
52858;SDS011;38721;53.098;6.596;2024-01-10T01:46:43;36.50;;;24.33;;
52858;SDS011;38721;53.098;6.596;2024-01-10T01:49:10;38.65;;;24.05;;
52858;SDS011;38721;53.098;6.596;2024-01-10T01:51:37;37.30;;;24.75;;
52858;SDS011;38721;53.098;6.596;2024-01-10T01:54:03;40.63;;;24.88;;
52858;SDS011;38721;53.098;6.596;2024-01-10T01:56:31;42.45;;;25.92;;
52858;SDS011;38721;53.098;6.596;2024-01-10T01:59:00;38.75;;;24.50;;
52858;SDS011;38721;53.098;6.596;2024-01-10T02:01:27;38.33;;;24.42;;
52858;SDS011;38721;53.098;6.596;2024-01-10T02:03:53;36.47;;;23.65;;
52858;SDS011;38721;53.098;6.596;2024-01-10T02:06:20;42.63;;;25.75;;
52858;SDS011;38721;53.098;6.596;2024-01-10T02:08:46;36.08;;;23.80;;
52858;SDS011;38721;53.098;6.596;2024-01-10T02:11:12;42.90;;;24.42;;
52858;SDS011;38721;53.098;6.596;2024-01-10T02:13:38;41.28;;;24.58;;
52858;SDS011;38721;53.098;6.596;2024-01-10T02:16:03;42.08;;;25.88;;
52858;SDS011;38721;53.098;6.596;2024-01-10T02:18:30;38.58;;;24.23;;
52858;SDS011;38721;53.098;6.596;2024-01-10T02:20:58;38.00;;;23.73;;
52858;SDS011;38721;53.098;6.596;2024-01-10T02:23:27;42.17;;;24.35;;
52858;SDS011;38721;53.098;6.596;2024-01-10T02:25:53;37.47;;;22.92;;
52858;SDS011;38721;53.098;6.596;2024-01-10T02:28:19;37.25;;;22.75;;
52858;SDS011;38721;53.098;6.596;2024-01-10T02:30:45;38.10;;;24.17;;
52858;SDS011;38721;53.098;6.596;2024-01-10T02:33:12;34.88;;;22.80;;
52858;SDS011;38721;53.098;6.596;2024-01-10T02:35:38;40.80;;;24.27;;
52858;SDS011;38721;53.098;6.596;2024-01-10T02:38:03;40.53;;;24.63;;
52858;SDS011;38721;53.098;6.596;2024-01-10T02:40:31;37.13;;;21.92;;
52858;SDS011;38721;53.098;6.596;2024-01-10T02:42:56;37.13;;;23.52;;
52858;SDS011;38721;53.098;6.596;2024-01-10T02:45:22;37.75;;;24.15;;
52858;SDS011;38721;53.098;6.596;2024-01-10T02:47:48;40.90;;;24.67;;
52858;SDS011;38721;53.098;6.596;2024-01-10T02:50:14;41.22;;;25.83;;
52858;SDS011;38721;53.098;6.596;2024-01-10T02:52:40;39.20;;;24.15;;
52858;SDS011;38721;53.098;6.596;2024-01-10T02:55:05;37.35;;;23.70;;
52858;SDS011;38721;53.098;6.596;2024-01-10T02:57:31;38.63;;;24.60;;
52858;SDS011;38721;53.098;6.596;2024-01-10T02:59:57;37.95;;;23.85;;
52858;SDS011;38721;53.098;6.596;2024-01-10T03:02:23;34.80;;;23.38;;
52858;SDS011;38721;53.098;6.596;2024-01-10T03:04:49;35.65;;;22.35;;
52858;SDS011;38721;53.098;6.596;2024-01-10T03:07:15;36.35;;;23.42;;
52858;SDS011;38721;53.098;6.596;2024-01-10T03:09:40;36.92;;;23.20;;
52858;SDS011;38721;53.098;6.596;2024-01-10T03:12:06;37.80;;;24.00;;
52858;SDS011;38721;53.098;6.596;2024-01-10T03:14:32;33.90;;;23.05;;
52858;SDS011;38721;53.098;6.596;2024-01-10T03:16:59;36.05;;;23.15;;
52858;SDS011;38721;53.098;6.596;2024-01-10T03:19:25;36.58;;;22.05;;
52858;SDS011;38721;53.098;6.596;2024-01-10T03:21:51;35.38;;;23.67;;
52858;SDS011;38721;53.098;6.596;2024-01-10T03:24:16;33.55;;;21.90;;
52858;SDS011;38721;53.098;6.596;2024-01-10T03:26:42;35.58;;;22.60;;
52858;SDS011;38721;53.098;6.596;2024-01-10T03:29:08;34.25;;;22.40;;
52858;SDS011;38721;53.098;6.596;2024-01-10T03:31:34;37.75;;;23.05;;
52858;SDS011;38721;53.098;6.596;2024-01-10T03:34:00;40.30;;;22.33;;
52858;SDS011;38721;53.098;6.596;2024-01-10T03:36:26;35.20;;;22.30;;
52858;SDS011;38721;53.098;6.596;2024-01-10T03:38:51;32.58;;;22.15;;
52858;SDS011;38721;53.098;6.596;2024-01-10T03:41:18;37.00;;;22.27;;
52858;SDS011;38721;53.098;6.596;2024-01-10T03:43:44;36.15;;;21.83;;
52858;SDS011;38721;53.098;6.596;2024-01-10T03:46:13;36.53;;;21.45;;
52858;SDS011;38721;53.098;6.596;2024-01-10T03:48:40;31.92;;;21.17;;
52858;SDS011;38721;53.098;6.596;2024-01-10T03:51:13;30.65;;;20.55;;
52858;SDS011;38721;53.098;6.596;2024-01-10T03:53:39;31.65;;;21.25;;
52858;SDS011;38721;53.098;6.596;2024-01-10T03:56:05;31.77;;;20.85;;
52858;SDS011;38721;53.098;6.596;2024-01-10T03:58:32;30.02;;;19.83;;
52858;SDS011;38721;53.098;6.596;2024-01-10T04:00:57;32.60;;;20.35;;
52858;SDS011;38721;53.098;6.596;2024-01-10T04:03:23;34.97;;;21.48;;
52858;SDS011;38721;53.098;6.596;2024-01-10T04:05:49;32.78;;;21.13;;
52858;SDS011;38721;53.098;6.596;2024-01-10T04:08:15;32.33;;;19.85;;
52858;SDS011;38721;53.098;6.596;2024-01-10T04:10:40;33.78;;;20.20;;
52858;SDS011;38721;53.098;6.596;2024-01-10T04:13:06;31.73;;;21.10;;
52858;SDS011;38721;53.098;6.596;2024-01-10T04:15:32;31.33;;;21.10;;
52858;SDS011;38721;53.098;6.596;2024-01-10T04:17:59;32.63;;;21.60;;
52858;SDS011;38721;53.098;6.596;2024-01-10T04:20:25;32.65;;;20.75;;
52858;SDS011;38721;53.098;6.596;2024-01-10T04:22:51;31.58;;;21.67;;
52858;SDS011;38721;53.098;6.596;2024-01-10T04:25:16;35.67;;;22.35;;
52858;SDS011;38721;53.098;6.596;2024-01-10T04:27:42;34.03;;;22.20;;
52858;SDS011;38721;53.098;6.596;2024-01-10T04:30:08;29.38;;;19.95;;
52858;SDS011;38721;53.098;6.596;2024-01-10T04:32:34;32.83;;;21.25;;
52858;SDS011;38721;53.098;6.596;2024-01-10T04:35:00;34.50;;;23.10;;
52858;SDS011;38721;53.098;6.596;2024-01-10T04:37:26;37.42;;;21.92;;
52858;SDS011;38721;53.098;6.596;2024-01-10T04:39:51;31.88;;;21.95;;
52858;SDS011;38721;53.098;6.596;2024-01-10T04:42:17;32.05;;;20.98;;
52858;SDS011;38721;53.098;6.596;2024-01-10T04:44:43;35.25;;;21.70;;
52858;SDS011;38721;53.098;6.596;2024-01-10T04:47:09;32.03;;;20.85;;
52858;SDS011;38721;53.098;6.596;2024-01-10T04:49:35;32.67;;;20.55;;
52858;SDS011;38721;53.098;6.596;2024-01-10T04:52:01;31.65;;;21.17;;
52858;SDS011;38721;53.098;6.596;2024-01-10T04:54:26;33.47;;;21.13;;
52858;SDS011;38721;53.098;6.596;2024-01-10T04:56:52;32.80;;;21.60;;
52858;SDS011;38721;53.098;6.596;2024-01-10T04:59:18;31.50;;;21.55;;
52858;SDS011;38721;53.098;6.596;2024-01-10T05:01:44;34.92;;;22.20;;
52858;SDS011;38721;53.098;6.596;2024-01-10T05:04:10;31.38;;;20.20;;
52858;SDS011;38721;53.098;6.596;2024-01-10T05:06:36;33.22;;;22.13;;
52858;SDS011;38721;53.098;6.596;2024-01-10T05:09:02;37.63;;;23.05;;
52858;SDS011;38721;53.098;6.596;2024-01-10T05:11:29;34.55;;;22.48;;
52858;SDS011;38721;53.098;6.596;2024-01-10T05:13:55;32.95;;;21.65;;
52858;SDS011;38721;53.098;6.596;2024-01-10T05:16:21;35.10;;;22.75;;
52858;SDS011;38721;53.098;6.596;2024-01-10T05:18:47;37.17;;;23.30;;
52858;SDS011;38721;53.098;6.596;2024-01-10T05:21:12;33.10;;;22.85;;
52858;SDS011;38721;53.098;6.596;2024-01-10T05:23:38;33.08;;;21.92;;
52858;SDS011;38721;53.098;6.596;2024-01-10T05:26:05;36.55;;;23.10;;
52858;SDS011;38721;53.098;6.596;2024-01-10T05:28:31;34.92;;;23.55;;
52858;SDS011;38721;53.098;6.596;2024-01-10T05:30:57;36.25;;;23.40;;
52858;SDS011;38721;53.098;6.596;2024-01-10T05:33:26;34.47;;;22.40;;
52858;SDS011;38721;53.098;6.596;2024-01-10T05:35:52;34.33;;;21.95;;
52858;SDS011;38721;53.098;6.596;2024-01-10T05:38:17;33.15;;;22.88;;
52858;SDS011;38721;53.098;6.596;2024-01-10T05:40:44;35.58;;;23.67;;
52858;SDS011;38721;53.098;6.596;2024-01-10T05:43:10;34.80;;;23.00;;
52858;SDS011;38721;53.098;6.596;2024-01-10T05:45:36;35.85;;;23.70;;
52858;SDS011;38721;53.098;6.596;2024-01-10T05:48:02;36.40;;;23.42;;
52858;SDS011;38721;53.098;6.596;2024-01-10T05:50:28;34.80;;;23.08;;
52858;SDS011;38721;53.098;6.596;2024-01-10T05:52:54;33.63;;;21.65;;
52858;SDS011;38721;53.098;6.596;2024-01-10T05:55:19;39.63;;;23.38;;
52858;SDS011;38721;53.098;6.596;2024-01-10T05:57:45;35.35;;;23.48;;
52858;SDS011;38721;53.098;6.596;2024-01-10T06:00:11;35.30;;;24.77;;
52858;SDS011;38721;53.098;6.596;2024-01-10T06:02:41;34.38;;;23.00;;
52858;SDS011;38721;53.098;6.596;2024-01-10T06:05:10;38.65;;;24.67;;
52858;SDS011;38721;53.098;6.596;2024-01-10T06:07:37;34.00;;;23.45;;
52858;SDS011;38721;53.098;6.596;2024-01-10T06:10:03;36.55;;;23.90;;
52858;SDS011;38721;53.098;6.596;2024-01-10T06:12:29;38.03;;;24.40;;
52858;SDS011;38721;53.098;6.596;2024-01-10T06:14:55;37.33;;;24.15;;
52858;SDS011;38721;53.098;6.596;2024-01-10T06:17:22;35.78;;;23.58;;
52858;SDS011;38721;53.098;6.596;2024-01-10T06:19:48;35.15;;;24.75;;
52858;SDS011;38721;53.098;6.596;2024-01-10T06:22:15;38.25;;;24.77;;
52858;SDS011;38721;53.098;6.596;2024-01-10T06:24:41;36.10;;;24.45;;
52858;SDS011;38721;53.098;6.596;2024-01-10T06:27:08;38.35;;;24.92;;
52858;SDS011;38721;53.098;6.596;2024-01-10T06:29:34;37.72;;;24.15;;
52858;SDS011;38721;53.098;6.596;2024-01-10T06:32:01;38.47;;;25.60;;
52858;SDS011;38721;53.098;6.596;2024-01-10T06:34:34;39.15;;;25.88;;
52858;SDS011;38721;53.098;6.596;2024-01-10T06:36:59;43.25;;;26.20;;
52858;SDS011;38721;53.098;6.596;2024-01-10T06:39:25;39.72;;;24.60;;
52858;SDS011;38721;53.098;6.596;2024-01-10T06:41:52;39.88;;;25.02;;
52858;SDS011;38721;53.098;6.596;2024-01-10T06:44:18;41.03;;;25.10;;
52858;SDS011;38721;53.098;6.596;2024-01-10T06:46:44;37.45;;;24.67;;
52858;SDS011;38721;53.098;6.596;2024-01-10T06:49:10;39.58;;;25.17;;
52858;SDS011;38721;53.098;6.596;2024-01-10T06:51:36;38.28;;;25.92;;
52858;SDS011;38721;53.098;6.596;2024-01-10T06:54:02;40.15;;;25.80;;
52858;SDS011;38721;53.098;6.596;2024-01-10T06:56:32;40.22;;;24.75;;
52858;SDS011;38721;53.098;6.596;2024-01-10T06:58:59;39.28;;;25.50;;
52858;SDS011;38721;53.098;6.596;2024-01-10T07:01:25;42.15;;;25.23;;
52858;SDS011;38721;53.098;6.596;2024-01-10T07:03:52;42.20;;;26.10;;
52858;SDS011;38721;53.098;6.596;2024-01-10T07:06:20;41.88;;;25.88;;
52858;SDS011;38721;53.098;6.596;2024-01-10T07:08:47;40.72;;;26.67;;
52858;SDS011;38721;53.098;6.596;2024-01-10T07:11:14;42.83;;;26.98;;
52858;SDS011;38721;53.098;6.596;2024-01-10T07:13:44;39.35;;;25.17;;
52858;SDS011;38721;53.098;6.596;2024-01-10T07:16:10;40.33;;;25.85;;
52858;SDS011;38721;53.098;6.596;2024-01-10T07:18:36;39.15;;;24.95;;
52858;SDS011;38721;53.098;6.596;2024-01-10T07:21:02;41.65;;;25.65;;
52858;SDS011;38721;53.098;6.596;2024-01-10T07:23:28;39.38;;;25.65;;
52858;SDS011;38721;53.098;6.596;2024-01-10T07:25:54;43.90;;;26.52;;
52858;SDS011;38721;53.098;6.596;2024-01-10T07:28:20;39.90;;;25.13;;
52858;SDS011;38721;53.098;6.596;2024-01-10T07:30:47;40.75;;;24.35;;
52858;SDS011;38721;53.098;6.596;2024-01-10T07:33:13;38.47;;;25.00;;
52858;SDS011;38721;53.098;6.596;2024-01-10T07:35:39;38.08;;;25.20;;
52858;SDS011;38721;53.098;6.596;2024-01-10T07:38:05;40.33;;;25.30;;
52858;SDS011;38721;53.098;6.596;2024-01-10T07:40:32;43.42;;;25.98;;
52858;SDS011;38721;53.098;6.596;2024-01-10T07:42:58;38.53;;;23.77;;
52858;SDS011;38721;53.098;6.596;2024-01-10T07:45:24;38.42;;;24.88;;
52858;SDS011;38721;53.098;6.596;2024-01-10T07:47:51;39.38;;;25.38;;
52858;SDS011;38721;53.098;6.596;2024-01-10T07:50:16;39.38;;;25.63;;
52858;SDS011;38721;53.098;6.596;2024-01-10T07:52:43;38.65;;;25.08;;
52858;SDS011;38721;53.098;6.596;2024-01-10T07:55:09;38.15;;;23.92;;
52858;SDS011;38721;53.098;6.596;2024-01-10T07:57:35;37.67;;;23.98;;
52858;SDS011;38721;53.098;6.596;2024-01-10T08:00:05;40.10;;;24.50;;
52858;SDS011;38721;53.098;6.596;2024-01-10T08:02:35;40.78;;;24.50;;
52858;SDS011;38721;53.098;6.596;2024-01-10T08:05:02;43.65;;;25.63;;
52858;SDS011;38721;53.098;6.596;2024-01-10T08:07:33;38.67;;;24.55;;
52858;SDS011;38721;53.098;6.596;2024-01-10T08:10:02;39.08;;;23.13;;
52858;SDS011;38721;53.098;6.596;2024-01-10T08:12:35;39.03;;;23.70;;
52858;SDS011;38721;53.098;6.596;2024-01-10T08:15:01;41.45;;;23.27;;
52858;SDS011;38721;53.098;6.596;2024-01-10T08:17:27;38.50;;;21.83;;
52858;SDS011;38721;53.098;6.596;2024-01-10T08:19:53;37.47;;;22.02;;
52858;SDS011;38721;53.098;6.596;2024-01-10T08:22:18;39.65;;;23.33;;
52858;SDS011;38721;53.098;6.596;2024-01-10T08:24:45;39.00;;;21.48;;
52858;SDS011;38721;53.098;6.596;2024-01-10T08:27:11;37.90;;;21.42;;
52858;SDS011;38721;53.098;6.596;2024-01-10T08:29:37;39.28;;;21.67;;
52858;SDS011;38721;53.098;6.596;2024-01-10T08:32:03;39.63;;;20.38;;
52858;SDS011;38721;53.098;6.596;2024-01-10T08:34:29;39.25;;;21.08;;
52858;SDS011;38721;53.098;6.596;2024-01-10T08:36:55;40.75;;;21.42;;
52858;SDS011;38721;53.098;6.596;2024-01-10T08:39:23;38.05;;;20.38;;
52858;SDS011;38721;53.098;6.596;2024-01-10T08:41:51;39.38;;;20.35;;
52858;SDS011;38721;53.098;6.596;2024-01-10T08:44:18;40.38;;;19.67;;
52858;SDS011;38721;53.098;6.596;2024-01-10T08:46:43;38.63;;;19.75;;
52858;SDS011;38721;53.098;6.596;2024-01-10T08:49:09;36.03;;;19.27;;
52858;SDS011;38721;53.098;6.596;2024-01-10T08:51:35;36.10;;;18.45;;
52858;SDS011;38721;53.098;6.596;2024-01-10T08:54:01;34.25;;;18.30;;
52858;SDS011;38721;53.098;6.596;2024-01-10T08:56:27;37.47;;;19.77;;
52858;SDS011;38721;53.098;6.596;2024-01-10T08:58:52;36.47;;;18.13;;
52858;SDS011;38721;53.098;6.596;2024-01-10T09:01:18;33.22;;;18.08;;
52858;SDS011;38721;53.098;6.596;2024-01-10T09:03:44;38.20;;;19.73;;
52858;SDS011;38721;53.098;6.596;2024-01-10T09:06:11;32.05;;;16.75;;
52858;SDS011;38721;53.098;6.596;2024-01-10T09:08:37;35.15;;;17.77;;
52858;SDS011;38721;53.098;6.596;2024-01-10T09:11:04;31.33;;;16.88;;
52858;SDS011;38721;53.098;6.596;2024-01-10T09:13:30;33.45;;;16.67;;
52858;SDS011;38721;53.098;6.596;2024-01-10T09:15:56;31.20;;;16.20;;
52858;SDS011;38721;53.098;6.596;2024-01-10T09:18:22;31.02;;;17.35;;
52858;SDS011;38721;53.098;6.596;2024-01-10T09:20:48;30.13;;;16.92;;
52858;SDS011;38721;53.098;6.596;2024-01-10T09:23:14;30.55;;;17.17;;
52858;SDS011;38721;53.098;6.596;2024-01-10T09:25:40;32.45;;;16.20;;
52858;SDS011;38721;53.098;6.596;2024-01-10T09:28:06;30.48;;;16.17;;
52858;SDS011;38721;53.098;6.596;2024-01-10T09:30:32;34.75;;;17.25;;
52858;SDS011;38721;53.098;6.596;2024-01-10T09:32:59;36.13;;;17.90;;
52858;SDS011;38721;53.098;6.596;2024-01-10T09:35:25;28.38;;;15.10;;
52858;SDS011;38721;53.098;6.596;2024-01-10T09:37:51;29.60;;;16.48;;
52858;SDS011;38721;53.098;6.596;2024-01-10T09:40:19;31.55;;;16.50;;
52858;SDS011;38721;53.098;6.596;2024-01-10T09:42:48;30.40;;;16.90;;
52858;SDS011;38721;53.098;6.596;2024-01-10T09:45:16;30.45;;;16.35;;
52858;SDS011;38721;53.098;6.596;2024-01-10T09:47:44;34.63;;;17.80;;
52858;SDS011;38721;53.098;6.596;2024-01-10T09:50:13;30.55;;;16.23;;
52858;SDS011;38721;53.098;6.596;2024-01-10T09:52:52;29.60;;;16.42;;
52858;SDS011;38721;53.098;6.596;2024-01-10T09:55:22;35.25;;;16.35;;
52858;SDS011;38721;53.098;6.596;2024-01-10T09:57:48;31.48;;;17.13;;
52858;SDS011;38721;53.098;6.596;2024-01-10T10:00:15;26.67;;;15.45;;
52858;SDS011;38721;53.098;6.596;2024-01-10T10:02:41;27.55;;;15.55;;
52858;SDS011;38721;53.098;6.596;2024-01-10T10:05:14;26.90;;;15.27;;
52858;SDS011;38721;53.098;6.596;2024-01-10T10:07:48;28.17;;;15.18;;
52858;SDS011;38721;53.098;6.596;2024-01-10T10:10:20;30.27;;;15.63;;
52858;SDS011;38721;53.098;6.596;2024-01-10T10:15:13;24.27;;;14.38;;
52858;SDS011;38721;53.098;6.596;2024-01-10T10:17:40;26.95;;;16.35;;
52858;SDS011;38721;53.098;6.596;2024-01-10T10:20:25;28.25;;;15.20;;
52858;SDS011;38721;53.098;6.596;2024-01-10T10:28:00;25.25;;;14.38;;
52858;SDS011;38721;53.098;6.596;2024-01-10T10:30:30;26.10;;;14.25;;
52858;SDS011;38721;53.098;6.596;2024-01-10T10:32:58;25.88;;;14.27;;
52858;SDS011;38721;53.098;6.596;2024-01-10T10:35:23;27.88;;;15.00;;
52858;SDS011;38721;53.098;6.596;2024-01-10T10:37:50;23.35;;;13.93;;
52858;SDS011;38721;53.098;6.596;2024-01-10T10:40:18;24.23;;;13.43;;
52858;SDS011;38721;53.098;6.596;2024-01-10T10:42:45;24.95;;;13.90;;
52858;SDS011;38721;53.098;6.596;2024-01-10T10:45:14;23.55;;;13.10;;
52858;SDS011;38721;53.098;6.596;2024-01-10T10:47:47;23.00;;;13.50;;
52858;SDS011;38721;53.098;6.596;2024-01-10T10:50:24;24.98;;;13.23;;
52858;SDS011;38721;53.098;6.596;2024-01-10T10:52:53;25.75;;;13.80;;
52858;SDS011;38721;53.098;6.596;2024-01-10T10:55:23;22.30;;;12.93;;
52858;SDS011;38721;53.098;6.596;2024-01-10T10:57:51;20.90;;;13.05;;
52858;SDS011;38721;53.098;6.596;2024-01-10T11:00:19;22.63;;;13.30;;
52858;SDS011;38721;53.098;6.596;2024-01-10T11:02:47;21.52;;;12.75;;
52858;SDS011;38721;53.098;6.596;2024-01-10T11:05:14;23.13;;;13.07;;
52858;SDS011;38721;53.098;6.596;2024-01-10T11:07:43;23.55;;;13.07;;
52858;SDS011;38721;53.098;6.596;2024-01-10T11:10:42;32.03;;;13.30;;
52858;SDS011;38721;53.098;6.596;2024-01-10T11:18:59;23.63;;;13.07;;
52858;SDS011;38721;53.098;6.596;2024-01-10T11:24:15;23.88;;;13.10;;
52858;SDS011;38721;53.098;6.596;2024-01-10T11:26:42;20.90;;;12.73;;
52858;SDS011;38721;53.098;6.596;2024-01-10T11:29:09;19.38;;;12.05;;
52858;SDS011;38721;53.098;6.596;2024-01-10T11:31:35;22.05;;;12.88;;
52858;SDS011;38721;53.098;6.596;2024-01-10T11:34:04;23.33;;;13.43;;
52858;SDS011;38721;53.098;6.596;2024-01-10T11:36:33;20.85;;;12.65;;
52858;SDS011;38721;53.098;6.596;2024-01-10T11:38:59;22.30;;;13.18;;
52858;SDS011;38721;53.098;6.596;2024-01-10T11:41:32;20.98;;;12.32;;
52858;SDS011;38721;53.098;6.596;2024-01-10T11:46:45;23.35;;;13.13;;
52858;SDS011;38721;53.098;6.596;2024-01-10T11:49:15;26.38;;;14.63;;
52858;SDS011;38721;53.098;6.596;2024-01-10T11:51:43;21.77;;;13.57;;
52858;SDS011;38721;53.098;6.596;2024-01-10T11:54:10;23.80;;;12.90;;
52858;SDS011;38721;53.098;6.596;2024-01-10T11:56:39;25.52;;;14.60;;
52858;SDS011;38721;53.098;6.596;2024-01-10T11:59:10;24.05;;;13.20;;
52858;SDS011;38721;53.098;6.596;2024-01-10T12:01:37;23.90;;;13.57;;
52858;SDS011;38721;53.098;6.596;2024-01-10T12:04:05;23.77;;;13.77;;
52858;SDS011;38721;53.098;6.596;2024-01-10T12:06:37;22.17;;;13.45;;
52858;SDS011;38721;53.098;6.596;2024-01-10T12:09:03;21.70;;;12.95;;
52858;SDS011;38721;53.098;6.596;2024-01-10T12:11:39;20.75;;;12.45;;
52858;SDS011;38721;53.098;6.596;2024-01-10T12:14:08;20.95;;;13.35;;
52858;SDS011;38721;53.098;6.596;2024-01-10T12:16:34;23.08;;;13.63;;
52858;SDS011;38721;53.098;6.596;2024-01-10T12:19:00;21.27;;;13.85;;
52858;SDS011;38721;53.098;6.596;2024-01-10T12:21:26;22.63;;;13.10;;
52858;SDS011;38721;53.098;6.596;2024-01-10T12:23:52;21.13;;;13.43;;
52858;SDS011;38721;53.098;6.596;2024-01-10T12:26:18;20.80;;;12.95;;
52858;SDS011;38721;53.098;6.596;2024-01-10T12:28:54;21.65;;;12.93;;
52858;SDS011;38721;53.098;6.596;2024-01-10T12:31:21;24.33;;;14.18;;
52858;SDS011;38721;53.098;6.596;2024-01-10T12:33:48;21.08;;;12.95;;
52858;SDS011;38721;53.098;6.596;2024-01-10T12:36:14;23.10;;;12.25;;
52858;SDS011;38721;53.098;6.596;2024-01-10T12:38:42;19.27;;;12.00;;
52858;SDS011;38721;53.098;6.596;2024-01-10T12:41:09;20.98;;;12.18;;
52858;SDS011;38721;53.098;6.596;2024-01-10T12:43:36;20.70;;;13.00;;
52858;SDS011;38721;53.098;6.596;2024-01-10T12:46:06;19.70;;;12.13;;
52858;SDS011;38721;53.098;6.596;2024-01-10T12:48:33;17.30;;;11.35;;
52858;SDS011;38721;53.098;6.596;2024-01-10T12:51:06;19.92;;;11.95;;
52858;SDS011;38721;53.098;6.596;2024-01-10T12:56:05;21.83;;;13.20;;
52858;SDS011;38721;53.098;6.596;2024-01-10T12:58:33;22.27;;;12.90;;
52858;SDS011;38721;53.098;6.596;2024-01-10T13:01:04;23.65;;;13.13;;
52858;SDS011;38721;53.098;6.596;2024-01-10T13:03:30;17.80;;;11.23;;
52858;SDS011;38721;53.098;6.596;2024-01-10T13:05:56;20.05;;;12.02;;
52858;SDS011;38721;53.098;6.596;2024-01-10T13:08:23;21.48;;;12.45;;
52858;SDS011;38721;53.098;6.596;2024-01-10T13:10:49;22.55;;;12.63;;
52858;SDS011;38721;53.098;6.596;2024-01-10T13:13:15;22.27;;;13.07;;
52858;SDS011;38721;53.098;6.596;2024-01-10T13:15:43;21.13;;;12.32;;
52858;SDS011;38721;53.098;6.596;2024-01-10T13:18:10;20.88;;;12.88;;
52858;SDS011;38721;53.098;6.596;2024-01-10T13:20:36;20.67;;;13.35;;
52858;SDS011;38721;53.098;6.596;2024-01-10T13:23:03;20.63;;;12.85;;
52858;SDS011;38721;53.098;6.596;2024-01-10T13:25:29;21.67;;;13.25;;
52858;SDS011;38721;53.098;6.596;2024-01-10T13:27:55;20.27;;;12.57;;
52858;SDS011;38721;53.098;6.596;2024-01-10T13:30:22;19.85;;;12.85;;
52858;SDS011;38721;53.098;6.596;2024-01-10T13:32:48;17.38;;;11.85;;
52858;SDS011;38721;53.098;6.596;2024-01-10T13:35:14;20.65;;;12.50;;
52858;SDS011;38721;53.098;6.596;2024-01-10T13:37:41;18.85;;;12.38;;
52858;SDS011;38721;53.098;6.596;2024-01-10T13:40:08;22.05;;;12.82;;
52858;SDS011;38721;53.098;6.596;2024-01-10T13:42:35;17.75;;;12.02;;
52858;SDS011;38721;53.098;6.596;2024-01-10T13:45:03;20.73;;;12.23;;
52858;SDS011;38721;53.098;6.596;2024-01-10T13:47:30;20.90;;;12.80;;
52858;SDS011;38721;53.098;6.596;2024-01-10T13:49:58;20.33;;;12.07;;
52858;SDS011;38721;53.098;6.596;2024-01-10T13:52:24;22.15;;;12.32;;
52858;SDS011;38721;53.098;6.596;2024-01-10T13:54:49;21.73;;;12.95;;
52858;SDS011;38721;53.098;6.596;2024-01-10T13:57:15;21.20;;;12.93;;
52858;SDS011;38721;53.098;6.596;2024-01-10T13:59:41;19.30;;;11.68;;
52858;SDS011;38721;53.098;6.596;2024-01-10T14:02:07;19.48;;;12.68;;
52858;SDS011;38721;53.098;6.596;2024-01-10T14:04:33;20.33;;;12.48;;
52858;SDS011;38721;53.098;6.596;2024-01-10T14:06:58;20.48;;;12.55;;
52858;SDS011;38721;53.098;6.596;2024-01-10T14:09:24;21.00;;;12.45;;
52858;SDS011;38721;53.098;6.596;2024-01-10T14:11:50;20.52;;;12.63;;
52858;SDS011;38721;53.098;6.596;2024-01-10T14:14:16;19.58;;;13.02;;
52858;SDS011;38721;53.098;6.596;2024-01-10T14:16:43;21.40;;;12.30;;
52858;SDS011;38721;53.098;6.596;2024-01-10T14:19:09;20.55;;;13.00;;
52858;SDS011;38721;53.098;6.596;2024-01-10T14:21:34;19.85;;;12.70;;
52858;SDS011;38721;53.098;6.596;2024-01-10T14:24:00;21.95;;;12.65;;
52858;SDS011;38721;53.098;6.596;2024-01-10T14:26:26;21.50;;;12.88;;
52858;SDS011;38721;53.098;6.596;2024-01-10T14:28:52;19.50;;;11.70;;
52858;SDS011;38721;53.098;6.596;2024-01-10T14:31:21;22.48;;;13.20;;
52858;SDS011;38721;53.098;6.596;2024-01-10T14:33:47;17.83;;;12.07;;
52858;SDS011;38721;53.098;6.596;2024-01-10T14:36:13;19.38;;;11.95;;
52858;SDS011;38721;53.098;6.596;2024-01-10T14:38:40;20.63;;;12.50;;
52858;SDS011;38721;53.098;6.596;2024-01-10T14:41:06;18.33;;;11.38;;